Time;durP1;ratioP1;P1;durP2;ratioP2;P2;SDS_P1;SDS_P2;PMS_P1;PMS_P2;Temp;Humidity;BMP_temperature;BMP_pressure;BME280_temperature;BME280_humidity;BME280_pressure;Samples;Min_cycle;Max_cycle;Signal;HPM_P1;HPM_P2
2022/05/17 14:31:19;;;;;;;9.70;5.60;;;;;;;28.03;40.21;101913.81;5015962;28;20348;-58
2022/05/17 14:33:45;;;;;;;8.70;5.38;;;;;;;28.53;38.76;101910.75;5019916;28;20925;-59
2022/05/17 14:36:18;;;;;;;10.38;5.15;;;;;;;28.47;39.48;101911.91;5008768;28;20329;-58
2022/05/17 14:38:44;;;;;;;10.82;5.40;;;;;;;28.51;39.85;101904.56;5020217;28;20053;-59
2022/05/17 14:41:12;;;;;;;9.75;5.38;;;;;;;28.52;39.78;101899.13;5021320;28;20045;-59
2022/05/17 14:43:38;;;;;;;11.48;5.43;;;;;;;28.62;39.25;101894.22;5008552;28;20045;-57
2022/05/17 14:46:03;;;;;;;10.10;4.88;;;;;;;28.64;40.80;101897.72;5016456;28;20060;-59
2022/05/17 14:48:29;;;;;;;10.18;4.75;;;;;;;28.80;39.19;101893.41;5012330;28;20779;-59
2022/05/17 14:50:55;;;;;;;8.05;4.18;;;;;;;28.79;39.70;101885.44;4996002;28;20055;-60
2022/05/17 14:53:21;;;;;;;10.07;4.90;;;;;;;28.85;38.81;101882.47;4992066;28;21064;-61
2022/05/17 14:55:46;;;;;;;9.63;4.22;;;;;;;28.87;39.74;101878.75;4992786;28;20046;-61
2022/05/17 14:58:12;;;;;;;7.40;3.90;;;;;;;29.09;39.48;101875.94;4994854;28;20050;-60
2022/05/17 15:00:38;;;;;;;11.82;4.28;;;;;;;29.01;38.66;101880.78;4996404;28;20268;-59
2022/05/17 15:03:17;;;;;;;8.70;4.53;;;;;;;28.94;39.22;101880.22;4999546;28;20130;-60
2022/05/17 15:05:46;;;;;;;7.97;4.32;;;;;;;29.18;37.64;101871.91;4987525;28;20927;-60
2022/05/17 15:08:11;;;;;;;16.27;4.93;;;;;;;28.83;37.97;101871.81;4994828;28;20041;-60
2022/05/17 15:10:38;;;;;;;15.20;4.75;;;;;;;28.67;39.27;101880.63;5004819;28;20080;-59
2022/05/17 15:13:04;;;;;;;10.15;4.60;;;;;;;28.55;39.85;101874.84;4996621;28;20710;-60
2022/05/17 15:15:30;;;;;;;9.65;4.55;;;;;;;28.60;39.61;101870.16;4992808;28;20042;-59
2022/05/17 15:17:59;;;;;;;9.45;4.50;;;;;;;28.67;38.41;101870.72;4999080;28;20157;-58
2022/05/17 15:20:25;;;;;;;12.40;4.45;;;;;;;28.76;38.80;101867.66;4997748;28;20045;-58
2022/05/17 15:22:56;;;;;;;9.93;4.60;;;;;;;29.09;38.23;101864.31;4992225;28;20042;-60
2022/05/17 15:25:23;;;;;;;8.95;4.13;;;;;;;29.16;37.17;101860.38;4993794;28;20446;-59
2022/05/17 15:27:49;;;;;;;7.57;4.40;;;;;;;29.08;37.90;101858.09;5002145;28;20454;-59
2022/05/17 15:30:15;;;;;;;12.05;5.00;;;;;;;28.95;37.14;101852.44;5005470;28;20547;-60
2022/05/17 15:32:40;;;;;;;10.00;4.88;;;;;;;28.89;37.95;101851.84;5021305;28;20039;-59
2022/05/17 15:35:08;;;;;;;10.60;5.28;;;;;;;28.91;37.62;101858.03;5021684;28;20139;-59
2022/05/17 15:37:35;;;;;;;9.88;3.90;;;;;;;28.92;38.26;101857.94;5014908;28;20060;-59
2022/05/17 15:40:01;;;;;;;9.30;4.53;;;;;;;28.76;38.01;101854.25;4996910;28;20049;-60
2022/05/17 15:42:27;;;;;;;9.63;4.30;;;;;;;28.65;38.44;101843.09;4995018;28;20033;-60
2022/05/17 15:44:55;;;;;;;12.85;4.32;;;;;;;28.74;38.86;101844.50;5007953;28;20045;-60
2022/05/17 15:53:20;;;;;;;10.75;4.82;;;;;;;28.91;39.54;101845.44;5008721;28;20044;-60
2022/05/17 15:55:51;;;;;;;8.52;4.53;;;;;;;28.86;40.66;101831.38;4996777;28;20136;-60
2022/05/17 15:58:20;;;;;;;13.88;6.00;;;;;;;28.60;38.80;101845.13;5001976;28;20037;-60
2022/05/17 16:00:46;;;;;;;12.98;6.25;;;;;;;28.52;39.09;101858.03;5001708;28;20424;-58
2022/05/17 16:03:11;;;;;;;14.38;7.75;;;;;;;28.50;36.97;101852.72;5008865;28;20051;-60
2022/05/17 16:05:37;;;;;;;11.70;6.75;;;;;;;28.94;36.83;101842.63;4989123;28;20536;-60
2022/05/17 16:08:12;;;;;;;13.00;7.30;;;;;;;29.20;37.45;101840.50;5008384;28;20140;-59
2022/05/17 16:10:43;;;;;;;14.60;7.22;;;;;;;29.47;37.17;101844.53;4998733;28;20551;-59
2022/05/17 16:13:11;;;;;;;10.00;5.95;;;;;;;29.45;36.61;101849.13;5007441;28;20088;-59
2022/05/17 16:15:43;;;;;;;15.82;7.45;;;;;;;29.23;36.18;101840.34;4990542;28;20076;-60
2022/05/17 16:18:14;;;;;;;13.82;7.60;;;;;;;29.00;36.33;101845.03;4999051;28;20048;-60
2022/05/17 16:20:40;;;;;;;10.20;7.07;;;;;;;29.05;37.64;101840.28;5006456;28;20051;-61
2022/05/17 16:23:06;;;;;;;11.98;7.35;;;;;;;28.96;38.76;101847.94;5000096;28;20037;-60
2022/05/17 16:25:34;;;;;;;51.50;9.02;;;;;;;29.01;37.69;101843.22;4996297;28;20045;-59
2022/05/17 16:27:59;;;;;;;27.15;8.75;;;;;;;29.01;36.36;101849.44;5002057;28;20598;-58
2022/05/17 16:30:28;;;;;;;12.93;7.20;;;;;;;29.19;37.16;101850.38;5001002;28;20036;-58
2022/05/17 16:32:55;;;;;;;12.30;7.43;;;;;;;29.26;38.96;101848.25;5004418;28;20119;-59
2022/05/17 16:35:27;;;;;;;13.30;7.10;;;;;;;29.06;40.50;101843.84;4996292;28;20045;-62
2022/05/17 16:37:53;;;;;;;12.77;7.90;;;;;;;28.79;37.23;101840.66;4988742;28;20512;-58
2022/05/17 16:40:19;;;;;;;16.25;7.40;;;;;;;28.90;39.32;101849.09;4998559;28;20120;-59
2022/05/17 16:42:44;;;;;;;12.40;7.63;;;;;;;28.78;39.28;101847.00;5008910;28;20045;-59
2022/05/17 16:45:09;;;;;;;15.95;7.20;;;;;;;28.68;40.12;101842.94;5001887;28;20131;-60
2022/05/17 16:47:35;;;;;;;13.63;7.18;;;;;;;28.53;40.86;101833.81;5000179;28;20222;-59
2022/05/17 16:50:07;;;;;;;19.50;7.35;;;;;;;28.44;41.40;101836.91;5004248;28;20464;-60
2022/05/17 16:52:32;;;;;;;13.52;6.82;;;;;;;28.47;40.19;101841.28;5002916;28;20393;-58
2022/05/17 16:54:58;;;;;;;13.02;8.25;;;;;;;28.24;37.81;101839.63;5003260;28;20041;-60
2022/05/17 16:57:23;;;;;;;11.80;7.80;;;;;;;28.13;38.44;101841.88;4997130;28;20261;-59
2022/05/17 16:59:49;;;;;;;15.20;8.10;;;;;;;28.11;39.71;101844.66;5003481;28;20119;-59
2022/05/17 17:02:30;;;;;;;10.85;6.22;;;;;;;28.38;38.84;101836.31;5005091;28;20178;-59
2022/05/17 17:04:56;;;;;;;11.77;7.15;;;;;;;28.48;38.74;101826.94;5001809;28;20030;-59
2022/05/17 17:07:23;;;;;;;11.38;6.57;;;;;;;28.61;39.45;101838.81;4991978;28;20798;-60
2022/05/17 17:09:49;;;;;;;11.52;7.55;;;;;;;28.63;38.87;101831.56;5002917;28;20052;-59
2022/05/17 17:12:14;;;;;;;12.23;7.10;;;;;;;28.79;39.19;101840.66;5002764;28;20511;-59
2022/05/17 17:14:40;;;;;;;14.20;6.88;;;;;;;28.83;39.51;101839.59;5003180;28;20103;-59
2022/05/17 17:17:07;;;;;;;9.70;6.50;;;;;;;28.87;39.13;101833.13;5003656;28;20033;-59
2022/05/17 17:19:32;;;;;;;12.77;7.30;;;;;;;28.60;41.00;101840.66;4998382;28;20045;-60
2022/05/17 17:21:58;;;;;;;11.02;7.00;;;;;;;28.55;42.33;101833.72;5005807;28;20429;-60
2022/05/17 17:24:23;;;;;;;10.48;6.57;;;;;;;28.35;43.42;101829.28;5003632;28;20042;-60
2022/05/17 17:26:49;;;;;;;9.95;6.88;;;;;;;28.25;42.37;101834.19;4996963;28;20045;-60
2022/05/17 17:29:17;;;;;;;10.07;6.40;;;;;;;28.08;42.58;101825.13;5004395;28;20048;-59
2022/05/17 17:31:43;;;;;;;13.07;6.80;;;;;;;27.93;43.27;101821.34;5000577;28;20041;-59
2022/05/17 17:39:36;;;;;;;11.07;6.75;;;;;;;28.11;38.33;101819.66;4998612;28;20360;-60
2022/05/17 17:42:02;;;;;;;12.85;6.88;;;;;;;28.39;38.29;101811.25;4996442;28;20137;-60
2022/05/17 17:44:28;;;;;;;13.30;7.07;;;;;;;28.45;39.63;101813.63;5003917;28;20085;-58
2022/05/17 17:46:54;;;;;;;14.57;7.07;;;;;;;28.51;40.33;101810.66;4998338;28;20088;-58
2022/05/17 17:49:22;;;;;;;10.65;6.43;;;;;;;28.63;39.29;101818.16;5003679;28;20388;-60
2022/05/17 17:51:47;;;;;;;10.27;5.30;;;;;;;28.79;39.07;101821.03;5008392;28;20033;-59
2022/05/17 17:54:12;;;;;;;9.98;4.85;;;;;;;28.90;38.04;101816.88;5000311;28;20038;-60
2022/05/17 17:56:37;;;;;;;12.25;4.90;;;;;;;28.87;39.41;101830.44;5004658;28;20409;-59
2022/05/17 17:59:04;;;;;;;12.80;5.13;;;;;;;28.80;39.06;101823.63;4985368;28;20102;-61
2022/05/17 18:01:29;;;;;;;8.32;4.32;;;;;;;28.69;39.59;101822.34;4997267;28;20523;-59
2022/05/17 18:03:56;;;;;;;9.98;5.00;;;;;;;28.48;40.34;101832.28;5000597;28;20146;-60
2022/05/17 18:06:22;;;;;;;11.38;4.70;;;;;;;28.22;41.44;101836.16;5002320;28;20037;-62
2022/05/17 18:08:48;;;;;;;7.95;4.00;;;;;;;28.15;41.20;101843.59;4999846;28;20116;-58
2022/05/17 18:11:13;;;;;;;10.02;5.03;;;;;;;27.94;42.36;101840.94;4983840;28;20396;-59
2022/05/17 18:13:45;;;;;;;10.05;4.70;;;;;;;27.68;42.46;101845.63;4992040;28;22205;-59
2022/05/17 18:16:26;;;;;;;12.50;4.78;;;;;;;27.56;42.95;101842.59;4986540;28;20432;-60
2022/05/17 18:18:52;;;;;;;11.25;4.88;;;;;;;27.32;44.62;101845.34;4998691;28;20038;-60
2022/05/17 18:21:17;;;;;;;10.55;4.53;;;;;;;27.17;44.26;101837.03;4996722;28;20068;-58
2022/05/17 18:23:45;;;;;;;9.63;5.00;;;;;;;26.95;44.49;101832.56;4998740;28;20041;-59
2022/05/17 18:26:13;;;;;;;11.15;4.93;;;;;;;26.83;44.64;101843.69;4996393;28;20041;-59
2022/05/17 18:28:40;;;;;;;13.93;5.32;;;;;;;26.69;44.95;101838.00;5002996;28;20538;-60
2022/05/17 18:31:09;;;;;;;11.88;5.45;;;;;;;26.63;44.65;101832.88;5000917;28;20033;-60
2022/05/17 18:33:35;;;;;;;10.65;4.65;;;;;;;26.53;45.57;101843.03;4991963;28;20344;-59
2022/05/17 18:36:03;;;;;;;12.70;5.63;;;;;;;26.37;45.29;101851.69;5001239;28;20041;-60
2022/05/17 18:38:28;;;;;;;12.27;6.00;;;;;;;26.34;45.52;101852.69;4997767;28;20489;-59
2022/05/17 18:40:55;;;;;;;12.02;4.78;;;;;;;26.37;45.40;101857.91;5003679;28;20077;-59
2022/05/17 18:43:21;;;;;;;10.27;5.32;;;;;;;26.31;45.79;101862.63;4994880;28;20080;-59
2022/05/17 18:45:47;;;;;;;13.38;5.18;;;;;;;26.19;46.32;101856.75;5001331;28;20049;-60
2022/05/17 18:48:16;;;;;;;14.25;6.20;;;;;;;26.06;47.47;101859.91;5001932;28;20099;-60
2022/05/17 18:50:42;;;;;;;13.52;6.50;;;;;;;25.96;48.32;101858.50;5000966;28;20052;-60
2022/05/17 18:53:08;;;;;;;12.25;6.72;;;;;;;25.85;48.80;101865.09;5006435;28;20492;-60
2022/05/17 18:55:38;;;;;;;12.15;6.53;;;;;;;25.78;48.57;101866.22;4996533;28;20549;-60
2022/05/17 18:58:06;;;;;;;14.48;6.50;;;;;;;25.68;49.68;101869.25;5004188;28;20021;-59
2022/05/17 19:00:34;;;;;;;15.68;6.82;;;;;;;25.59;48.95;101875.78;5002684;28;20033;-59
2022/05/17 19:03:03;;;;;;;13.25;6.43;;;;;;;25.49;49.31;101865.44;4997007;28;20311;-59
2022/05/17 19:05:47;;;;;;;12.98;6.60;;;;;;;25.37;49.10;101869.38;4992038;28;20452;-59
2022/05/17 19:13:46;;;;;;;11.50;6.20;;;;;;;24.93;50.20;101858.28;4996789;28;20352;-59
2022/05/17 19:16:16;;;;;;;14.63;6.25;;;;;;;24.80;50.56;101864.88;5003701;28;20136;-59
2022/05/17 19:18:48;;;;;;;15.23;6.38;;;;;;;24.64;51.38;101869.78;5002835;28;20040;-58
2022/05/17 19:21:22;;;;;;;14.15;6.78;;;;;;;24.46;51.73;101866.75;5001273;28;20048;-60
2022/05/17 19:23:50;;;;;;;14.57;5.85;;;;;;;24.29;52.45;101863.69;5002373;28;20068;-60
2022/05/17 19:26:16;;;;;;;14.60;6.50;;;;;;;24.11;52.08;101867.72;5004354;28;20037;-59
2022/05/17 19:28:42;;;;;;;12.13;6.15;;;;;;;23.98;52.54;101869.81;5004310;28;20151;-60
2022/05/17 19:31:08;;;;;;;10.18;5.47;;;;;;;23.85;52.80;101865.72;5001065;28;20127;-59
2022/05/17 19:33:34;;;;;;;12.60;5.95;;;;;;;23.68;52.94;101875.94;4995637;28;20059;-59
2022/05/17 19:36:00;;;;;;;11.80;6.07;;;;;;;23.57;53.38;101862.91;5007450;28;20121;-60
2022/05/17 19:41:09;;;;;;;11.65;6.03;;;;;;;23.35;53.56;101862.53;5006922;28;20123;-59
2022/05/17 19:43:34;;;;;;;11.75;6.47;;;;;;;23.22;53.05;101865.50;4997662;28;20757;-60
2022/05/17 19:46:00;;;;;;;11.77;6.40;;;;;;;23.08;53.82;101864.94;5005598;28;20033;-60
2022/05/17 19:48:29;;;;;;;13.52;6.90;;;;;;;22.94;53.81;101863.44;5003210;28;20049;-59
2022/05/17 19:50:54;;;;;;;10.27;6.63;;;;;;;22.83;53.98;101859.28;5005799;28;20419;-61
2022/05/17 19:53:20;;;;;;;13.40;6.25;;;;;;;22.76;54.40;101873.59;5001531;28;20045;-59
2022/05/17 19:55:45;;;;;;;15.35;7.20;;;;;;;22.65;54.63;101873.81;4997960;28;20037;-59
2022/05/17 19:58:10;;;;;;;12.65;6.80;;;;;;;22.55;55.09;101880.22;5011321;28;20068;-60
2022/05/17 20:00:43;;;;;;;13.32;6.70;;;;;;;22.45;55.77;101879.50;5004708;28;20037;-61
2022/05/17 20:03:10;;;;;;;14.90;7.10;;;;;;;22.38;56.77;101871.72;5003525;28;20107;-60
2022/05/17 20:05:36;;;;;;;13.45;7.05;;;;;;;22.31;56.34;101878.94;5002256;28;20511;-58
2022/05/17 20:08:02;;;;;;;13.30;6.22;;;;;;;22.20;56.45;101879.09;5004074;28;20590;-59
2022/05/17 20:10:28;;;;;;;17.13;7.15;;;;;;;22.11;56.78;101889.03;5000208;28;20042;-60
2022/05/17 20:12:54;;;;;;;12.57;7.10;;;;;;;22.02;57.07;101890.06;5008415;28;20761;-59
2022/05/17 20:15:22;;;;;;;14.52;7.00;;;;;;;21.90;57.10;101882.28;5000209;28;20475;-60
2022/05/17 20:17:50;;;;;;;14.98;7.43;;;;;;;21.83;57.42;101888.63;5007513;28;20045;-60
2022/05/17 20:20:18;;;;;;;14.57;7.70;;;;;;;21.72;57.91;101883.47;5008791;28;20189;-59
2022/05/17 20:22:43;;;;;;;13.05;7.57;;;;;;;21.68;57.98;101879.13;5000476;28;20048;-60
2022/05/17 20:25:19;;;;;;;16.23;7.80;;;;;;;21.58;58.60;101880.19;5001499;28;20041;-60
2022/05/17 20:27:44;;;;;;;13.73;7.68;;;;;;;21.50;58.46;101882.06;4998225;28;20757;-59
2022/05/17 20:30:10;;;;;;;13.80;7.93;;;;;;;21.42;58.64;101879.53;5005471;28;20580;-59
2022/05/17 20:32:36;;;;;;;14.65;8.07;;;;;;;21.34;58.98;101883.22;5002615;28;20613;-59
2022/05/17 20:35:02;;;;;;;14.48;8.02;;;;;;;21.26;59.31;101890.41;5006145;28;20367;-59
2022/05/17 20:37:28;;;;;;;16.35;8.27;;;;;;;21.17;59.42;101893.19;4992463;28;20037;-59
2022/05/17 20:39:54;;;;;;;14.73;8.05;;;;;;;21.13;59.84;101888.78;5001130;28;20041;-60
2022/05/17 20:42:20;;;;;;;13.38;8.10;;;;;;;21.04;60.17;101882.72;4997523;28;20050;-58
2022/05/17 20:44:46;;;;;;;14.82;8.27;;;;;;;21.00;60.32;101888.09;5003642;28;20488;-60
2022/05/17 20:49:57;;;;;;;14.77;8.60;;;;;;;20.87;60.86;101890.03;4991595;28;20044;-58
2022/05/17 20:52:23;;;;;;;14.50;8.35;;;;;;;20.84;61.04;101900.69;4996190;28;20533;-60
2022/05/17 20:54:48;;;;;;;12.75;8.30;;;;;;;20.84;60.79;101897.16;4996124;28;20053;-59
2022/05/17 20:57:14;;;;;;;17.15;8.10;;;;;;;20.77;61.39;101892.81;5003562;28;20081;-59
2022/05/17 20:59:43;;;;;;;15.32;8.32;;;;;;;20.72;62.37;101900.81;4990461;28;20559;-59
2022/05/17 21:02:10;;;;;;;14.00;9.15;;;;;;;20.65;62.65;101905.31;5001132;28;20048;-60
2022/05/17 21:04:35;;;;;;;15.38;9.80;;;;;;;20.62;62.60;101910.63;4989198;28;20498;-60
2022/05/17 21:07:03;;;;;;;19.23;10.60;;;;;;;20.58;62.53;101908.94;4999102;28;20045;-59
2022/05/17 21:09:28;;;;;;;17.35;9.60;;;;;;;20.55;62.44;101900.16;4990339;28;20441;-58
2022/05/17 21:11:54;;;;;;;17.45;10.57;;;;;;;20.52;62.33;101905.47;5003437;28;20293;-58
2022/05/17 21:14:20;;;;;;;19.05;10.60;;;;;;;20.51;62.34;101895.75;4999307;28;20039;-59
2022/05/17 21:16:45;;;;;;;19.17;10.27;;;;;;;20.47;62.41;101897.59;4998386;28;20038;-59
2022/05/17 21:19:27;;;;;;;16.10;9.68;;;;;;;20.47;62.10;101900.22;4995640;28;20050;-60
2022/05/17 21:21:52;;;;;;;15.02;10.05;;;;;;;20.44;61.90;101902.91;4993199;28;20046;-59
2022/05/17 21:24:18;;;;;;;20.42;11.38;;;;;;;20.38;61.92;101900.31;5003964;28;20052;-60
2022/05/17 21:26:52;;;;;;;16.38;10.60;;;;;;;20.38;61.94;101902.09;4995221;28;20041;-59
2022/05/17 21:29:19;;;;;;;17.20;10.77;;;;;;;20.35;62.29;101902.13;4999202;28;20357;-59
2022/05/17 21:31:45;;;;;;;17.20;10.98;;;;;;;20.34;62.52;101903.03;4992899;28;20514;-60
2022/05/17 21:34:10;;;;;;;18.30;11.32;;;;;;;20.34;62.28;101903.91;4997243;28;20045;-59
2022/05/17 21:36:36;;;;;;;18.98;11.55;;;;;;;20.31;62.20;101905.69;4999474;28;20041;-59
2022/05/17 21:39:03;;;;;;;19.17;11.95;;;;;;;20.24;62.36;101905.75;4998764;28;20522;-60
2022/05/17 21:41:29;;;;;;;21.85;12.68;;;;;;;20.17;62.40;101904.06;4990351;28;20102;-58
2022/05/17 21:43:54;;;;;;;16.63;11.40;;;;;;;20.13;62.09;101904.94;5004055;28;20416;-60
2022/05/17 21:46:19;;;;;;;16.67;10.82;;;;;;;20.10;62.25;101915.59;4993455;28;20899;-59
2022/05/17 21:48:45;;;;;;;21.50;12.07;;;;;;;20.07;62.71;101915.59;5001242;28;20047;-58
2022/05/17 21:51:10;;;;;;;19.10;11.93;;;;;;;20.02;62.92;101905.94;5007029;28;20037;-59
2022/05/17 21:53:36;;;;;;;19.42;11.93;;;;;;;19.98;63.42;101907.75;4997721;28;20634;-59
2022/05/17 21:56:01;;;;;;;19.25;11.80;;;;;;;19.95;63.27;101906.88;4998655;28;20131;-59
2022/05/17 21:58:27;;;;;;;20.40;11.48;;;;;;;19.90;63.14;101908.69;5000566;28;20428;-59
2022/05/17 22:00:54;;;;;;;22.40;12.35;;;;;;;19.84;63.02;101909.63;4998091;28;20041;-58
2022/05/17 22:03:22;;;;;;;22.52;12.15;;;;;;;19.81;62.95;101912.31;4991545;28;20044;-59
2022/05/17 22:05:48;;;;;;;22.50;13.20;;;;;;;19.73;63.57;101912.38;4995501;28;20444;-59
2022/05/17 22:08:18;;;;;;;18.52;11.82;;;;;;;19.69;63.85;101912.41;5002937;28;20056;-59
2022/05/17 22:13:46;;;;;;;22.63;12.07;;;;;;;19.62;64.20;101906.28;4989133;28;20131;-60
2022/05/17 22:16:21;;;;;;;18.95;12.32;;;;;;;19.60;64.19;101913.34;4994064;28;20041;-60
2022/05/17 22:18:48;;;;;;;19.75;12.27;;;;;;;19.62;64.13;101913.34;4999300;28;20068;-59
2022/05/17 22:21:15;;;;;;;19.45;12.32;;;;;;;19.58;64.36;101915.13;4982430;28;20508;-59
2022/05/17 22:23:40;;;;;;;21.60;13.57;;;;;;;19.55;64.01;101912.50;4990514;28;21947;-60
2022/05/17 22:26:06;;;;;;;20.27;13.93;;;;;;;19.48;64.20;101907.28;4994016;28;20039;-59
2022/05/17 22:28:31;;;;;;;22.42;12.98;;;;;;;19.46;64.81;101898.50;4995759;28;20053;-61
2022/05/17 22:30:57;;;;;;;21.30;13.18;;;;;;;19.43;65.28;101897.56;5002444;28;20045;-59
2022/05/17 22:33:22;;;;;;;19.98;12.35;;;;;;;19.41;65.19;101890.53;4995367;28;20048;-60
2022/05/17 22:35:48;;;;;;;20.42;13.63;;;;;;;19.32;64.97;101896.78;4998420;28;20037;-61
2022/05/17 22:38:13;;;;;;;20.95;12.65;;;;;;;19.28;65.12;101910.88;5000362;28;20130;-60
2022/05/17 22:40:39;;;;;;;20.73;12.70;;;;;;;19.24;65.47;101905.63;4993603;28;20065;-59
2022/05/17 22:43:04;;;;;;;20.38;12.55;;;;;;;19.22;65.72;101905.63;4997301;28;20056;-59
2022/05/17 22:48:13;;;;;;;18.42;12.05;;;;;;;19.17;66.03;101915.34;5000618;28;20400;-60
2022/05/17 22:50:41;;;;;;;19.02;11.75;;;;;;;19.17;65.71;101906.53;5000292;28;20045;-59
2022/05/17 22:53:09;;;;;;;16.08;11.85;;;;;;;19.12;65.89;101903.94;5001288;28;20046;-59
2022/05/17 22:55:36;;;;;;;20.35;12.43;;;;;;;19.11;65.74;101909.22;4998244;28;20072;-59
2022/05/17 22:58:01;;;;;;;18.98;12.32;;;;;;;19.08;65.90;101915.41;4998644;28;20087;-60
2022/05/17 23:00:27;;;;;;;20.10;12.55;;;;;;;19.04;65.86;101916.31;5002409;28;20591;-59
2022/05/17 23:02:53;;;;;;;19.50;13.05;;;;;;;19.00;65.99;101928.66;5002043;28;20037;-58
2022/05/17 23:05:19;;;;;;;19.40;12.63;;;;;;;18.98;65.82;101917.22;4995017;28;21137;-59
2022/05/17 23:07:45;;;;;;;19.65;13.00;;;;;;;18.91;65.79;101920.75;4997157;28;20232;-60
2022/05/17 23:10:11;;;;;;;21.45;13.55;;;;;;;18.88;65.95;101923.44;5005602;28;20394;-59
2022/05/17 23:12:36;;;;;;;19.45;13.50;;;;;;;18.84;65.99;101919.06;5003242;28;20060;-58
2022/05/17 23:15:01;;;;;;;20.63;13.80;;;;;;;18.82;66.17;101922.56;5004236;28;20180;-59
2022/05/17 23:17:27;;;;;;;22.65;13.48;;;;;;;18.79;66.05;101918.16;4995185;28;20052;-59
2022/05/17 23:19:52;;;;;;;20.02;13.55;;;;;;;18.76;66.13;101918.19;5002213;28;20507;-60
2022/05/17 23:22:17;;;;;;;21.67;13.52;;;;;;;18.75;66.09;101915.56;4999382;28;20167;-58
2022/05/17 23:30:11;;;;;;;21.88;13.18;;;;;;;18.65;66.67;101920.00;5000692;28;20071;-60
2022/05/17 23:32:38;;;;;;;19.17;12.82;;;;;;;18.58;66.89;101918.25;4998798;28;20416;-59
2022/05/17 23:35:04;;;;;;;19.60;13.10;;;;;;;18.53;67.14;101918.25;4999270;28;20657;-59
2022/05/17 23:37:30;;;;;;;19.10;12.93;;;;;;;18.50;67.11;101912.97;5000129;28;20565;-59
2022/05/17 23:39:55;;;;;;;19.83;13.27;;;;;;;18.46;67.51;101908.56;5003589;28;20173;-59
2022/05/17 23:42:21;;;;;;;20.55;12.95;;;;;;;18.44;67.32;101906.81;5000851;28;20041;-59
2022/05/17 23:44:46;;;;;;;19.63;12.93;;;;;;;18.43;67.58;101911.22;4995875;28;20128;-59
2022/05/17 23:47:11;;;;;;;20.70;14.23;;;;;;;18.39;67.99;101914.75;4999334;28;20338;-59
2022/05/17 23:49:37;;;;;;;19.10;13.73;;;;;;;18.38;68.08;101909.47;4993548;28;20100;-59
2022/05/17 23:52:02;;;;;;;18.83;13.63;;;;;;;18.35;68.19;101914.78;4996987;28;20539;-58
2022/05/17 23:54:28;;;;;;;21.52;13.57;;;;;;;18.36;67.55;101921.81;4998431;28;20052;-60
2022/05/17 23:56:53;;;;;;;21.65;13.57;;;;;;;18.33;67.77;101919.16;5001474;28;20140;-59
2022/05/17 23:59:18;;;;;;;18.17;12.98;;;;;;;18.29;67.86;101923.59;4995499;28;20549;-61
